sensor_id;sensor_type;location;lat;lon;timestamp;pressure;altitude;pressure_sealevel;temperature;humidity
10145;BME280;5113;41.822;23.564;2023-08-12T00:02:53;-11395.53;;;16.66;100.00
10145;BME280;5113;41.822;23.564;2023-08-12T00:06:00;-11398.34;;;16.76;100.00
10145;BME280;5113;41.822;23.564;2023-08-12T00:09:08;-11400.88;;;16.85;100.00
10145;BME280;5113;41.822;23.564;2023-08-12T00:12:16;-11398.22;;;16.75;100.00
10145;BME280;5113;41.822;23.564;2023-08-12T00:15:23;-11394.69;;;16.63;100.00
10145;BME280;5113;41.822;23.564;2023-08-12T00:18:29;-11396.81;;;16.70;100.00
10145;BME280;5113;41.822;23.564;2023-08-12T00:21:41;-11400.88;;;16.85;100.00
10145;BME280;5113;41.822;23.564;2023-08-12T00:24:49;-11391.88;;;16.52;100.00
10145;BME280;5113;41.822;23.564;2023-08-12T00:27:55;-11398.06;;;16.75;100.00
10145;BME280;5113;41.822;23.564;2023-08-12T00:31:02;-11382.28;;;16.18;100.00
10145;BME280;5113;41.822;23.564;2023-08-12T00:34:09;-11387.06;;;16.35;100.00
10145;BME280;5113;41.822;23.564;2023-08-12T00:37:15;-11390.19;;;16.46;100.00
10145;BME280;5113;41.822;23.564;2023-08-12T00:40:23;-11383.41;;;16.22;100.00
10145;BME280;5113;41.822;23.564;2023-08-12T00:43:29;-11387.06;;;16.35;100.00
10145;BME280;5113;41.822;23.564;2023-08-12T00:46:36;-11385.25;;;16.29;100.00
10145;BME280;5113;41.822;23.564;2023-08-12T00:49:43;-11389.63;;;16.44;100.00
10145;BME280;5113;41.822;23.564;2023-08-12T00:52:50;-11384.25;;;16.25;100.00
10145;BME280;5113;41.822;23.564;2023-08-12T00:55:58;-11387.06;;;16.35;100.00
10145;BME280;5113;41.822;23.564;2023-08-12T00:59:05;-11383.41;;;16.22;100.00
10145;BME280;5113;41.822;23.564;2023-08-12T01:02:13;-11377.78;;;16.02;100.00
10145;BME280;5113;41.822;23.564;2023-08-12T01:05:20;-11375.25;;;15.93;100.00
10145;BME280;5113;41.822;23.564;2023-08-12T01:08:29;-11378.91;;;16.06;100.00
10145;BME280;5113;41.822;23.564;2023-08-12T01:11:41;-11387.34;;;16.36;100.00
10145;BME280;5113;41.822;23.564;2023-08-12T01:14:53;-11384.13;;;16.25;100.00
10145;BME280;5113;41.822;23.564;2023-08-12T01:18:02;-11379.47;;;16.08;100.00
10145;BME280;5113;41.822;23.564;2023-08-12T01:21:11;-11384.81;;;16.27;100.00
10145;BME280;5113;41.822;23.564;2023-08-12T01:24:24;-11384.25;;;16.25;100.00
10145;BME280;5113;41.822;23.564;2023-08-12T01:27:31;-11388.75;;;16.41;100.00
10145;BME280;5113;41.822;23.564;2023-08-12T01:30:43;-11389.03;;;16.42;100.00
10145;BME280;5113;41.822;23.564;2023-08-12T01:33:58;-11391.59;;;16.51;100.00
10145;BME280;5113;41.822;23.564;2023-08-12T01:37:09;-11393.56;;;16.59;100.00
10145;BME280;5113;41.822;23.564;2023-08-12T01:40:19;-11391.59;;;16.51;100.00
10145;BME280;5113;41.822;23.564;2023-08-12T01:43:26;-11397.66;;;16.73;100.00
10145;BME280;5113;41.822;23.564;2023-08-12T01:46:32;-11394.13;;;16.61;100.00
10145;BME280;5113;41.822;23.564;2023-08-12T01:49:38;-11389.63;;;16.44;100.00
10145;BME280;5113;41.822;23.564;2023-08-12T01:52:45;-11388.75;;;16.41;100.00
10145;BME280;5113;41.822;23.564;2023-08-12T01:55:52;-11391.59;;;16.51;100.00
10145;BME280;5113;41.822;23.564;2023-08-12T01:58:59;-11380.75;;;16.12;100.00
10145;BME280;5113;41.822;23.564;2023-08-12T02:02:05;-11377.50;;;16.01;100.00
10145;BME280;5113;41.822;23.564;2023-08-12T02:05:11;-11383.97;;;16.24;100.00
10145;BME280;5113;41.822;23.564;2023-08-12T02:08:18;-11389.34;;;16.43;100.00
10145;BME280;5113;41.822;23.564;2023-08-12T02:11:26;-11388.63;;;16.41;100.00
10145;BME280;5113;41.822;23.564;2023-08-12T02:14:32;-11391.59;;;16.51;100.00
10145;BME280;5113;41.822;23.564;2023-08-12T02:17:38;-11389.63;;;16.44;100.00
10145;BME280;5113;41.822;23.564;2023-08-12T02:20:46;-11390.88;;;16.49;100.00
10145;BME280;5113;41.822;23.564;2023-08-12T02:23:52;-11387.50;;;16.37;100.00
10145;BME280;5113;41.822;23.564;2023-08-12T02:27:00;-11389.03;;;16.42;100.00
10145;BME280;5113;41.822;23.564;2023-08-12T02:30:07;-11386.50;;;16.33;100.00
10145;BME280;5113;41.822;23.564;2023-08-12T02:33:14;-11387.63;;;16.37;100.00
10145;BME280;5113;41.822;23.564;2023-08-12T02:36:20;-11384.69;;;16.27;100.00
10145;BME280;5113;41.822;23.564;2023-08-12T02:39:27;-11380.31;;;16.11;100.00
10145;BME280;5113;41.822;23.564;2023-08-12T02:42:34;-11374.13;;;15.89;100.00
10145;BME280;5113;41.822;23.564;2023-08-12T02:45:41;-11374.41;;;15.90;100.00
10145;BME280;5113;41.822;23.564;2023-08-12T02:48:47;-11376.38;;;15.97;100.00
10145;BME280;5113;41.822;23.564;2023-08-12T02:51:54;-11379.19;;;16.07;100.00
10145;BME280;5113;41.822;23.564;2023-08-12T02:55:00;-11381.72;;;16.16;100.00
10145;BME280;5113;41.822;23.564;2023-08-12T02:58:08;-11379.19;;;16.07;100.00
10145;BME280;5113;41.822;23.564;2023-08-12T03:01:14;-11376.94;;;15.99;100.00
10145;BME280;5113;41.822;23.564;2023-08-12T03:04:21;-11380.03;;;16.10;100.00
10145;BME280;5113;41.822;23.564;2023-08-12T03:07:28;-11383.13;;;16.21;100.00
10145;BME280;5113;41.822;23.564;2023-08-12T03:10:34;-11374.69;;;15.91;100.00
10145;BME280;5113;41.822;23.564;2023-08-12T03:13:41;-11380.59;;;16.12;100.00
10145;BME280;5113;41.822;23.564;2023-08-12T03:16:47;-11382.28;;;16.18;100.00
10145;BME280;5113;41.822;23.564;2023-08-12T03:19:54;-11378.91;;;16.06;100.00
10145;BME280;5113;41.822;23.564;2023-08-12T03:23:00;-11378.63;;;16.05;100.00
10145;BME280;5113;41.822;23.564;2023-08-12T03:26:06;-11383.69;;;16.23;100.00
10145;BME280;5113;41.822;23.564;2023-08-12T03:29:14;-11381.59;;;16.15;100.00
10145;BME280;5113;41.822;23.564;2023-08-12T03:32:20;-11387.91;;;16.38;100.00
10145;BME280;5113;41.822;23.564;2023-08-12T03:35:27;-11384.53;;;16.26;100.00
10145;BME280;5113;41.822;23.564;2023-08-12T03:38:33;-11378.34;;;16.04;100.00
10145;BME280;5113;41.822;23.564;2023-08-12T03:41:41;-11377.91;;;16.02;100.00
10145;BME280;5113;41.822;23.564;2023-08-12T03:44:48;-11374.41;;;15.90;100.00
10145;BME280;5113;41.822;23.564;2023-08-12T03:47:55;-11371.28;;;15.78;100.00
10145;BME280;5113;41.822;23.564;2023-08-12T03:51:02;-11377.22;;;16.00;100.00
10145;BME280;5113;41.822;23.564;2023-08-12T03:54:08;-11382.56;;;16.19;100.00
10145;BME280;5113;41.822;23.564;2023-08-12T03:57:14;-11374.53;;;15.90;100.00
10145;BME280;5113;41.822;23.564;2023-08-12T04:00:22;-11377.22;;;16.00;100.00
10145;BME280;5113;41.822;23.564;2023-08-12T04:03:28;-11379.03;;;16.06;100.00
10145;BME280;5113;41.822;23.564;2023-08-12T04:06:34;-11375.94;;;15.95;100.00
10145;BME280;5113;41.822;23.564;2023-08-12T04:09:40;-11376.66;;;15.98;100.00
10145;BME280;5113;41.822;23.564;2023-08-12T04:12:46;-11378.19;;;16.03;100.00
10145;BME280;5113;41.822;23.564;2023-08-12T04:15:54;-11368.06;;;15.67;100.00
10145;BME280;5113;41.822;23.564;2023-08-12T04:19:00;-11372.84;;;15.84;100.00
10145;BME280;5113;41.822;23.564;2023-08-12T04:22:07;-11374.53;;;15.90;100.00
10145;BME280;5113;41.822;23.564;2023-08-12T04:25:13;-11378.75;;;16.05;100.00
10145;BME280;5113;41.822;23.564;2023-08-12T04:28:19;-11378.06;;;16.03;100.00
10145;BME280;5113;41.822;23.564;2023-08-12T04:31:27;-11378.34;;;16.04;100.00
10145;BME280;5113;41.822;23.564;2023-08-12T04:34:34;-11379.31;;;16.07;100.00
10145;BME280;5113;41.822;23.564;2023-08-12T04:37:41;-11378.75;;;16.05;100.00
10145;BME280;5113;41.822;23.564;2023-08-12T04:40:47;-11379.19;;;16.07;100.00
10145;BME280;5113;41.822;23.564;2023-08-12T04:43:54;-11382.84;;;16.20;100.00
10145;BME280;5113;41.822;23.564;2023-08-12T04:47:03;-11381.72;;;16.16;100.00
10145;BME280;5113;41.822;23.564;2023-08-12T04:50:09;-11377.22;;;16.00;100.00
10145;BME280;5113;41.822;23.564;2023-08-12T04:53:16;-11371.84;;;15.80;100.00
10145;BME280;5113;41.822;23.564;2023-08-12T04:56:24;-11373.00;;;15.84;100.00
10145;BME280;5113;41.822;23.564;2023-08-12T04:59:34;-11378.91;;;16.06;100.00
10145;BME280;5113;41.822;23.564;2023-08-12T05:02:41;-11384.41;;;16.26;100.00
10145;BME280;5113;41.822;23.564;2023-08-12T05:05:50;-11392.00;;;16.53;100.00
10145;BME280;5113;41.822;23.564;2023-08-12T05:08:56;-11402.56;;;16.91;100.00
10145;BME280;5113;41.822;23.564;2023-08-12T05:12:03;-11395.25;;;16.65;100.00
10145;BME280;5113;41.822;23.564;2023-08-12T05:15:09;-11389.63;;;16.44;100.00
10145;BME280;5113;41.822;23.564;2023-08-12T05:18:17;-11399.47;;;16.80;100.00
10145;BME280;5113;41.822;23.564;2023-08-12T05:21:23;-11404.41;;;16.98;100.00
10145;BME280;5113;41.822;23.564;2023-08-12T05:24:30;-11410.75;;;17.21;100.00
10145;BME280;5113;41.822;23.564;2023-08-12T05:27:36;-11417.22;;;17.44;100.00
10145;BME280;5113;41.822;23.564;2023-08-12T05:30:43;-11427.25;;;17.80;100.00
10145;BME280;5113;41.822;23.564;2023-08-12T05:33:51;-11421.75;;;17.60;100.00
10145;BME280;5113;41.822;23.564;2023-08-12T05:36:57;-11426.25;;;17.76;100.00
10145;BME280;5113;41.822;23.564;2023-08-12T05:40:04;-11455.16;;;18.80;100.00
10145;BME280;5113;41.822;23.564;2023-08-12T05:43:13;-11463.47;;;19.10;100.00
10145;BME280;5113;41.822;23.564;2023-08-12T05:46:19;-11462.06;;;19.05;100.00
10145;BME280;5113;41.822;23.564;2023-08-12T05:49:27;-11471.66;;;19.40;97.75
10145;BME280;5113;41.822;23.564;2023-08-12T05:52:34;-11484.63;;;19.87;92.92
10145;BME280;5113;41.822;23.564;2023-08-12T05:55:40;-11484.78;;;19.87;91.17
10145;BME280;5113;41.822;23.564;2023-08-12T05:58:46;-11493.25;;;20.18;86.47
10145;BME280;5113;41.822;23.564;2023-08-12T06:01:53;-11484.78;;;19.87;88.12
10145;BME280;5113;41.822;23.564;2023-08-12T06:05:02;-11479.69;;;19.69;89.20
10145;BME280;5113;41.822;23.564;2023-08-12T06:08:08;-11492.25;;;20.14;84.23
10145;BME280;5113;41.822;23.564;2023-08-12T06:11:14;-11503.81;;;20.56;83.63
10145;BME280;5113;41.822;23.564;2023-08-12T06:14:21;-11503.53;;;20.55;83.07
10145;BME280;5113;41.822;23.564;2023-08-12T06:17:27;-11509.03;;;20.74;76.77
10145;BME280;5113;41.822;23.564;2023-08-12T06:20:35;-11510.44;;;20.80;78.37
10145;BME280;5113;41.822;23.564;2023-08-12T06:23:41;-11525.97;;;21.35;74.86
10145;BME280;5113;41.822;23.564;2023-08-12T06:26:48;-11508.34;;;20.72;78.23
10145;BME280;5113;41.822;23.564;2023-08-12T06:29:54;-11524.13;;;21.29;75.19
10145;BME280;5113;41.822;23.564;2023-08-12T06:33:00;-11509.59;;;20.76;79.51
10145;BME280;5113;41.822;23.564;2023-08-12T06:36:08;-11517.94;;;21.06;76.36
10145;BME280;5113;41.822;23.564;2023-08-12T06:39:14;-11537.25;;;21.76;74.02
10145;BME280;5113;41.822;23.564;2023-08-12T06:42:21;-11528.38;;;21.44;75.74
10145;BME280;5113;41.822;23.564;2023-08-12T06:45:27;-11516.38;;;21.01;76.00
10145;BME280;5113;41.822;23.564;2023-08-12T06:48:33;-11546.44;;;22.09;71.20
10145;BME280;5113;41.822;23.564;2023-08-12T06:51:41;-11552.06;;;22.29;67.27
10145;BME280;5113;41.822;23.564;2023-08-12T06:54:47;-11545.00;;;22.04;66.71
10145;BME280;5113;41.822;23.564;2023-08-12T06:57:53;-11540.63;;;21.88;68.81
10145;BME280;5113;41.822;23.564;2023-08-12T07:01:00;-11549.69;;;22.21;65.96
10145;BME280;5113;41.822;23.564;2023-08-12T07:04:06;-11543.88;;;22.00;65.46
10145;BME280;5113;41.822;23.564;2023-08-12T07:07:14;-11556.59;;;22.46;62.84
10145;BME280;5113;41.822;23.564;2023-08-12T07:10:20;-11565.91;;;22.79;63.00
10145;BME280;5113;41.822;23.564;2023-08-12T07:13:27;-11578.59;;;23.25;59.66
10145;BME280;5113;41.822;23.564;2023-08-12T07:16:34;-11567.31;;;22.84;63.44
10145;BME280;5113;41.822;23.564;2023-08-12T07:19:40;-11579.16;;;23.27;60.20
10145;BME280;5113;41.822;23.564;2023-08-12T07:22:48;-11605.00;;;24.20;58.28
10145;BME280;5113;41.822;23.564;2023-08-12T07:25:54;-11589.06;;;23.62;57.56
10145;BME280;5113;41.822;23.564;2023-08-12T07:29:01;-11601.91;;;24.09;58.56
10145;BME280;5113;41.822;23.564;2023-08-12T07:32:08;-11571.84;;;23.00;58.49
10145;BME280;5113;41.822;23.564;2023-08-12T07:35:15;-11602.75;;;24.12;56.95
10145;BME280;5113;41.822;23.564;2023-08-12T07:38:22;-11629.72;;;25.09;56.49
10145;BME280;5113;41.822;23.564;2023-08-12T07:41:29;-11595.81;;;23.87;56.98
10145;BME280;5113;41.822;23.564;2023-08-12T07:44:35;-11621.81;;;24.80;54.68
10145;BME280;5113;41.822;23.564;2023-08-12T07:47:42;-11580.84;;;23.33;56.10
10145;BME280;5113;41.822;23.564;2023-08-12T07:50:55;-11604.84;;;24.19;55.27
10145;BME280;5113;41.822;23.564;2023-08-12T07:54:03;-11564.50;;;22.74;56.04
10145;BME280;5113;41.822;23.564;2023-08-12T07:57:09;-11570.97;;;22.97;58.73
10145;BME280;5113;41.822;23.564;2023-08-12T08:00:16;-11585.25;;;23.49;56.32
10145;BME280;5113;41.822;23.564;2023-08-12T08:03:23;-11601.75;;;24.08;54.68
10145;BME280;5113;41.822;23.564;2023-08-12T08:06:30;-11652.16;;;25.89;53.36
10145;BME280;5113;41.822;23.564;2023-08-12T08:09:38;-11637.06;;;25.35;50.62
10145;BME280;5113;41.822;23.564;2023-08-12T08:12:45;-11635.22;;;25.28;50.92
10145;BME280;5113;41.822;23.564;2023-08-12T08:15:51;-11638.31;;;25.40;50.33
10145;BME280;5113;41.822;23.564;2023-08-12T08:18:58;-11631.41;;;25.15;51.36
10145;BME280;5113;41.822;23.564;2023-08-12T08:22:05;-11613.34;;;24.50;53.46
10145;BME280;5113;41.822;23.564;2023-08-12T08:25:12;-11606.13;;;24.24;52.63
10145;BME280;5113;41.822;23.564;2023-08-12T08:28:19;-11647.22;;;25.72;48.65
10145;BME280;5113;41.822;23.564;2023-08-12T08:31:25;-11628.44;;;25.04;49.14
10145;BME280;5113;41.822;23.564;2023-08-12T08:34:32;-11681.09;;;26.93;46.20
10145;BME280;5113;41.822;23.564;2023-08-12T08:37:38;-11689.59;;;27.24;45.12
10145;BME280;5113;41.822;23.564;2023-08-12T08:40:48;-11672.22;;;26.61;47.29
10145;BME280;5113;41.822;23.564;2023-08-12T08:43:55;-11665.44;;;26.37;46.98
10145;BME280;5113;41.822;23.564;2023-08-12T08:47:06;-11676.16;;;26.76;46.86
10145;BME280;5113;41.822;23.564;2023-08-12T08:50:13;-11691.84;;;27.32;46.50
10145;BME280;5113;41.822;23.564;2023-08-12T08:53:21;-11670.94;;;26.57;48.73
10145;BME280;5113;41.822;23.564;2023-08-12T08:56:30;-11656.53;;;26.05;48.61
10145;BME280;5113;41.822;23.564;2023-08-12T08:59:37;-11629.00;;;25.06;50.65
10145;BME280;5113;41.822;23.564;2023-08-12T09:02:46;-11633.38;;;25.22;49.51
10145;BME280;5113;41.822;23.564;2023-08-12T09:05:55;-11635.91;;;25.31;49.09
10145;BME280;5113;41.822;23.564;2023-08-12T09:09:02;-11612.06;;;24.45;50.95
10145;BME280;5113;41.822;23.564;2023-08-12T09:12:14;-11619.41;;;24.72;50.38
10145;BME280;5113;41.822;23.564;2023-08-12T09:15:20;-11627.88;;;25.02;52.45
10145;BME280;5113;41.822;23.564;2023-08-12T09:18:29;-11643.53;;;25.58;48.37
10145;BME280;5113;41.822;23.564;2023-08-12T09:21:36;-11622.94;;;24.84;50.43
10145;BME280;5113;41.822;23.564;2023-08-12T09:24:42;-11626.88;;;24.98;48.50
10145;BME280;5113;41.822;23.564;2023-08-12T09:27:50;-11653.00;;;25.92;46.79
10145;BME280;5113;41.822;23.564;2023-08-12T09:30:56;-11635.78;;;25.30;47.99
10145;BME280;5113;41.822;23.564;2023-08-12T09:34:05;-11619.53;;;24.72;47.17
10145;BME280;5113;41.822;23.564;2023-08-12T09:37:12;-11635.63;;;25.30;45.89
10145;BME280;5113;41.822;23.564;2023-08-12T09:40:19;-11645.25;;;25.64;44.33
10145;BME280;5113;41.822;23.564;2023-08-12T09:43:27;-11635.91;;;25.31;45.15
10145;BME280;5113;41.822;23.564;2023-08-12T09:46:34;-11647.78;;;25.74;44.29
10145;BME280;5113;41.822;23.564;2023-08-12T09:49:41;-11683.38;;;27.02;43.74
10145;BME280;5113;41.822;23.564;2023-08-12T09:52:47;-11682.81;;;27.00;40.66
10145;BME280;5113;41.822;23.564;2023-08-12T09:55:54;-11678.44;;;26.84;41.02
10145;BME280;5113;41.822;23.564;2023-08-12T09:59:06;-11673.75;;;26.67;43.16
10145;BME280;5113;41.822;23.564;2023-08-12T10:02:15;-11666.28;;;26.40;43.91
10145;BME280;5113;41.822;23.564;2023-08-12T10:05:26;-11660.91;;;26.21;44.32
10145;BME280;5113;41.822;23.564;2023-08-12T10:08:35;-11650.88;;;25.85;41.89
10145;BME280;5113;41.822;23.564;2023-08-12T10:11:41;-11640.84;;;25.49;45.67
10145;BME280;5113;41.822;23.564;2023-08-12T10:14:50;-11628.56;;;25.05;44.23
10145;BME280;5113;41.822;23.564;2023-08-12T10:17:57;-11627.03;;;24.99;45.23
10145;BME280;5113;41.822;23.564;2023-08-12T10:21:04;-11642.56;;;25.55;47.08
10145;BME280;5113;41.822;23.564;2023-08-12T10:24:13;-11630.00;;;25.10;46.16
10145;BME280;5113;41.822;23.564;2023-08-12T10:27:22;-11631.69;;;25.16;46.47
10145;BME280;5113;41.822;23.564;2023-08-12T10:30:30;-11623.91;;;24.88;44.34
10145;BME280;5113;41.822;23.564;2023-08-12T10:33:37;-11643.53;;;25.58;45.09
10145;BME280;5113;41.822;23.564;2023-08-12T10:36:44;-11629.72;;;25.09;44.87
10145;BME280;5113;41.822;23.564;2023-08-12T10:40:09;-11656.81;;;26.06;44.29
10145;BME280;5113;41.822;23.564;2023-08-12T10:43:26;-11651.31;;;25.86;45.04
10145;BME280;5113;41.822;23.564;2023-08-12T10:46:34;-11641.84;;;25.52;46.18
10145;BME280;5113;41.822;23.564;2023-08-12T10:49:43;-11638.47;;;25.40;44.48
10145;BME280;5113;41.822;23.564;2023-08-12T10:52:52;-11633.38;;;25.22;44.63
10145;BME280;5113;41.822;23.564;2023-08-12T10:56:00;-11628.28;;;25.04;44.07
10145;BME280;5113;41.822;23.564;2023-08-12T10:59:07;-11649.63;;;25.80;43.01
10145;BME280;5113;41.822;23.564;2023-08-12T11:02:18;-11655.69;;;26.02;44.54
10145;BME280;5113;41.822;23.564;2023-08-12T11:05:26;-11686.91;;;27.14;40.33
10145;BME280;5113;41.822;23.564;2023-08-12T11:08:46;-11698.91;;;27.57;39.77
10145;BME280;5113;41.822;23.564;2023-08-12T11:11:57;-11739.03;;;29.02;38.26
10145;BME280;5113;41.822;23.564;2023-08-12T11:15:06;-11691.84;;;27.32;40.76
10145;BME280;5113;41.822;23.564;2023-08-12T11:18:15;-11687.31;;;27.16;42.22
10145;BME280;5113;41.822;23.564;2023-08-12T11:21:22;-11680.97;;;26.93;40.56
10145;BME280;5113;41.822;23.564;2023-08-12T11:24:30;-11663.88;;;26.31;43.13
10145;BME280;5113;41.822;23.564;2023-08-12T11:27:39;-11684.50;;;27.06;39.53
10145;BME280;5113;41.822;23.564;2023-08-12T11:30:46;-11677.56;;;26.81;40.18
10145;BME280;5113;41.822;23.564;2023-08-12T11:33:53;-11724.91;;;28.51;39.53
10145;BME280;5113;41.822;23.564;2023-08-12T11:37:00;-11730.97;;;28.73;37.90
10145;BME280;5113;41.822;23.564;2023-08-12T11:40:11;-11708.38;;;27.91;38.47
10145;BME280;5113;41.822;23.564;2023-08-12T11:43:21;-11724.75;;;28.50;37.87
10145;BME280;5113;41.822;23.564;2023-08-12T11:46:28;-11707.66;;;27.89;39.03
10145;BME280;5113;41.822;23.564;2023-08-12T11:49:36;-11694.25;;;27.41;39.96
10145;BME280;5113;41.822;23.564;2023-08-12T11:52:42;-11679.28;;;26.87;41.93
10145;BME280;5113;41.822;23.564;2023-08-12T11:55:49;-11694.25;;;27.41;39.99
10145;BME280;5113;41.822;23.564;2023-08-12T11:58:55;-11669.25;;;26.51;42.37
10145;BME280;5113;41.822;23.564;2023-08-12T12:02:02;-11674.31;;;26.69;40.49
10145;BME280;5113;41.822;23.564;2023-08-12T12:05:11;-11674.03;;;26.68;40.29
10145;BME280;5113;41.822;23.564;2023-08-12T12:08:18;-11649.06;;;25.78;41.39
10145;BME280;5113;41.822;23.564;2023-08-12T12:11:25;-11644.09;;;25.60;41.15
10145;BME280;5113;41.822;23.564;2023-08-12T12:14:31;-11661.47;;;26.23;41.18
10145;BME280;5113;41.822;23.564;2023-08-12T12:17:41;-11640.72;;;25.48;41.10
10145;BME280;5113;41.822;23.564;2023-08-12T12:20:56;-11652.16;;;25.89;42.05
10145;BME280;5113;41.822;23.564;2023-08-12T12:24:03;-11655.41;;;26.01;41.79
10145;BME280;5113;41.822;23.564;2023-08-12T12:27:11;-11653.44;;;25.94;43.94
10145;BME280;5113;41.822;23.564;2023-08-12T12:30:17;-11659.06;;;26.14;42.59
10145;BME280;5113;41.822;23.564;2023-08-12T12:33:24;-11647.34;;;25.72;43.09
10145;BME280;5113;41.822;23.564;2023-08-12T12:36:34;-11671.06;;;26.57;42.68
10145;BME280;5113;41.822;23.564;2023-08-12T12:39:41;-11667.69;;;26.45;40.45
10145;BME280;5113;41.822;23.564;2023-08-12T12:42:48;-11662.31;;;26.26;42.18
10145;BME280;5113;41.822;23.564;2023-08-12T12:45:54;-11657.09;;;26.07;40.64
10145;BME280;5113;41.822;23.564;2023-08-12T12:49:00;-11651.03;;;25.85;42.08
10145;BME280;5113;41.822;23.564;2023-08-12T12:52:09;-11649.63;;;25.80;41.62
10145;BME280;5113;41.822;23.564;2023-08-12T12:55:15;-11643.41;;;25.58;43.14
10145;BME280;5113;41.822;23.564;2023-08-12T12:58:22;-11639.44;;;25.44;44.92
10145;BME280;5113;41.822;23.564;2023-08-12T13:01:29;-11634.66;;;25.26;41.79
10145;BME280;5113;41.822;23.564;2023-08-12T13:04:35;-11638.03;;;25.39;44.35
10145;BME280;5113;41.822;23.564;2023-08-12T13:07:43;-11633.09;;;25.21;44.81
10145;BME280;5113;41.822;23.564;2023-08-12T13:10:49;-11633.09;;;25.21;41.74
10145;BME280;5113;41.822;23.564;2023-08-12T13:13:55;-11632.53;;;25.19;43.96
10145;BME280;5113;41.822;23.564;2023-08-12T13:17:02;-11637.34;;;25.36;41.72
10145;BME280;5113;41.822;23.564;2023-08-12T13:20:09;-11649.63;;;25.80;42.34
10145;BME280;5113;41.822;23.564;2023-08-12T13:23:17;-11638.19;;;25.39;42.19
10145;BME280;5113;41.822;23.564;2023-08-12T13:26:24;-11650.59;;;25.84;42.44
10145;BME280;5113;41.822;23.564;2023-08-12T13:29:30;-11664.16;;;26.33;40.78
10145;BME280;5113;41.822;23.564;2023-08-12T13:32:37;-11668.25;;;26.47;41.68
10145;BME280;5113;41.822;23.564;2023-08-12T13:35:43;-11673.47;;;26.66;44.97
10145;BME280;5113;41.822;23.564;2023-08-12T13:38:51;-11637.63;;;25.37;48.47
10145;BME280;5113;41.822;23.564;2023-08-12T13:41:57;-11648.63;;;25.77;48.20
10145;BME280;5113;41.822;23.564;2023-08-12T13:45:05;-11645.09;;;25.64;48.76
10145;BME280;5113;41.822;23.564;2023-08-12T13:48:11;-11661.06;;;26.21;48.23
10145;BME280;5113;41.822;23.564;2023-08-12T13:51:18;-11662.87;;;26.28;45.96
10145;BME280;5113;41.822;23.564;2023-08-12T13:54:26;-11671.50;;;26.59;44.94
10145;BME280;5113;41.822;23.564;2023-08-12T13:57:32;-11667.69;;;26.45;43.38
10145;BME280;5113;41.822;23.564;2023-08-12T14:00:39;-11658.78;;;26.13;42.92
10145;BME280;5113;41.822;23.564;2023-08-12T14:03:46;-11657.66;;;26.09;43.45
10145;BME280;5113;41.822;23.564;2023-08-12T14:06:52;-11658.78;;;26.13;43.75
10145;BME280;5113;41.822;23.564;2023-08-12T14:10:01;-11660.06;;;26.18;43.84
10145;BME280;5113;41.822;23.564;2023-08-12T14:13:10;-11650.88;;;25.85;45.01
10145;BME280;5113;41.822;23.564;2023-08-12T14:16:17;-11650.19;;;25.82;46.50
10145;BME280;5113;41.822;23.564;2023-08-12T14:19:23;-11648.22;;;25.75;44.20
10145;BME280;5113;41.822;23.564;2023-08-12T14:22:30;-11641.56;;;25.51;43.97
10145;BME280;5113;41.822;23.564;2023-08-12T14:25:38;-11653.16;;;25.93;45.20
10145;BME280;5113;41.822;23.564;2023-08-12T14:28:44;-11650.88;;;25.85;44.44
10145;BME280;5113;41.822;23.564;2023-08-12T14:31:51;-11635.91;;;25.31;44.56
10145;BME280;5113;41.822;23.564;2023-08-12T14:34:58;-11646.78;;;25.70;43.67
10145;BME280;5113;41.822;23.564;2023-08-12T14:38:04;-11642.00;;;25.53;45.03
10145;BME280;5113;41.822;23.564;2023-08-12T14:41:12;-11643.53;;;25.58;43.61
10145;BME280;5113;41.822;23.564;2023-08-12T14:44:18;-11638.03;;;25.39;44.33
10145;BME280;5113;41.822;23.564;2023-08-12T14:47:25;-11637.34;;;25.36;45.46
10145;BME280;5113;41.822;23.564;2023-08-12T14:50:31;-11638.47;;;25.40;46.10
10145;BME280;5113;41.822;23.564;2023-08-12T14:53:37;-11644.25;;;25.61;47.51
10145;BME280;5113;41.822;23.564;2023-08-12T14:56:45;-11644.66;;;25.62;45.17
10145;BME280;5113;41.822;23.564;2023-08-12T14:59:51;-11631.13;;;25.14;43.39
10145;BME280;5113;41.822;23.564;2023-08-12T15:02:58;-11632.25;;;25.18;42.53
10145;BME280;5113;41.822;23.564;2023-08-12T15:06:04;-11636.34;;;25.32;41.49
10145;BME280;5113;41.822;23.564;2023-08-12T15:09:11;-11639.59;;;25.44;41.10
10145;BME280;5113;41.822;23.564;2023-08-12T15:12:19;-11639.72;;;25.45;41.18
10145;BME280;5113;41.822;23.564;2023-08-12T15:15:26;-11649.63;;;25.80;43.53
10145;BME280;5113;41.822;23.564;2023-08-12T15:18:32;-11653.72;;;25.95;42.60
10145;BME280;5113;41.822;23.564;2023-08-12T15:21:39;-11649.19;;;25.79;43.82
10145;BME280;5113;41.822;23.564;2023-08-12T15:24:46;-11652.31;;;25.90;40.03
10145;BME280;5113;41.822;23.564;2023-08-12T15:27:53;-11657.38;;;26.08;40.77
10145;BME280;5113;41.822;23.564;2023-08-12T15:31:00;-11641.28;;;25.50;41.81
10145;BME280;5113;41.822;23.564;2023-08-12T15:34:07;-11634.78;;;25.27;40.74
10145;BME280;5113;41.822;23.564;2023-08-12T15:37:14;-11637.47;;;25.37;39.60
10145;BME280;5113;41.822;23.564;2023-08-12T15:40:21;-11626.47;;;24.97;41.81
10145;BME280;5113;41.822;23.564;2023-08-12T15:43:30;-11628.00;;;25.02;41.54
10145;BME280;5113;41.822;23.564;2023-08-12T15:46:37;-11629.28;;;25.07;41.60
10145;BME280;5113;41.822;23.564;2023-08-12T15:49:44;-11626.31;;;24.96;40.43
10145;BME280;5113;41.822;23.564;2023-08-12T15:52:51;-11634.78;;;25.27;40.35
10145;BME280;5113;41.822;23.564;2023-08-12T15:55:57;-11627.59;;;25.01;39.64
10145;BME280;5113;41.822;23.564;2023-08-12T15:59:06;-11627.31;;;25.00;39.45
10145;BME280;5113;41.822;23.564;2023-08-12T16:02:12;-11624.19;;;24.89;40.81
10145;BME280;5113;41.822;23.564;2023-08-12T16:05:19;-11624.34;;;24.89;42.14
10145;BME280;5113;41.822;23.564;2023-08-12T16:08:26;-11615.59;;;24.58;45.84
10145;BME280;5113;41.822;23.564;2023-08-12T16:11:33;-11613.75;;;24.51;42.61
10145;BME280;5113;41.822;23.564;2023-08-12T16:14:41;-11608.81;;;24.33;46.63